Wood, Iowa
Current Conditions -  °F | °C
As of 12:35 AM on Sunday 26 Oct 2014 (Local Time) from KPDC Reporting Station
Clear Clear  
Wind Chill:   Ceiling: Unl
Heat Index:   Visibility: 10mi
Dew Point:   Wind: 3mph
Humidity: 77%   Direction: 350°N
Pressure: 30.04"   Gusts: NA
Location:  42.6679°N, 91.3801°W
Report Text: KPDC 260535Z AUTO 35003KT 10SM CLR 04/01 A3004 RMK AO2 T00440006
Loading
Personal Weather Stations






























Interactive Weather Map
Tropical Storm Tracking
New forecast layout! Learn more

10-Day Weather Forecast

Advertisements
Track Severe Weather on mobile